Accueil
METAR-TAF:

METAR-TAF

Aéroports :

Base aérienne

Meppen, Allemagne

latitude: 52-43-24N, longitude: 007-19-35E, altitude: 21 m

Observation

Le bulletin a été fait il y a 1 heure et 0 minutes, à 06:20 UTC
Vent 4 kt de est/nord-est
Température 23°C
Humidité 65%
Pression 1016 hPa
Visibilité 10 km ou plus
Quelques nuages à une hauteur de 36000 ft

METAR: ETWM 110620Z 07004KT 9999 FEW360 23/16 Q1016 BLU+

Heure: 09:20 (07:20 UTC)


TAF: absent

Observations et prévisions météorologiques de plus de 4000 aéroports (messages METAR et TAF).

Les stations disponibles sont représentées par des disques jaunes et rouges sur la carte.

Passer la souris dessus pour voir le nom de la station.

Cliquer dessus pour voir les observations et prévisions météorologiques.

Pour changer de carte: cliquez sur les boutons verts avec une croix noire pour zoomer, sur le bouton vert avec un tiret pour effectuer un zoom arrière, ou sur les flèches vertes pour les cartes adjacentes.


METAR-TAF: